createdAt,value
2018-08-04T00:02:18.821Z,20.93
2018-08-04T00:04:47.000Z,22.10
2018-08-04T00:07:15.246Z,22.73
2018-08-04T00:09:43.428Z,22.43
2018-08-04T00:12:12.116Z,21.60
2018-08-04T00:14:40.275Z,21.60
2018-08-04T00:17:08.448Z,21.17
2018-08-04T00:19:36.641Z,20.37
2018-08-04T00:22:04.853Z,21.77
2018-08-04T00:24:33.045Z,21.63
2018-08-04T00:27:01.221Z,21.77
2018-08-04T00:29:29.414Z,21.73
2018-08-04T00:31:57.612Z,22.07
2018-08-04T00:34:25.776Z,22.30
2018-08-04T00:36:54.100Z,22.03
2018-08-04T00:39:22.267Z,23.17
2018-08-04T00:41:50.491Z,21.70
2018-08-04T00:44:18.670Z,22.30
2018-08-04T00:46:46.844Z,21.80
2018-08-04T00:49:15.115Z,22.87
2018-08-04T00:51:43.314Z,23.10
2018-08-04T00:54:11.507Z,22.73
2018-08-04T00:56:39.703Z,23.20
2018-08-04T00:59:07.958Z,22.50
2018-08-04T01:01:36.137Z,22.63
2018-08-04T01:04:04.343Z,22.10
2018-08-04T01:06:32.535Z,23.23
2018-08-04T01:09:00.723Z,24.13
2018-08-04T01:11:28.941Z,23.67
2018-08-04T01:13:57.123Z,23.43
2018-08-04T01:16:25.457Z,23.10
2018-08-04T01:18:53.744Z,21.60
2018-08-04T01:21:21.964Z,23.50
2018-08-04T01:23:50.187Z,23.83
2018-08-04T01:26:18.411Z,23.63
2018-08-04T01:28:46.588Z,23.73
2018-08-04T01:31:14.806Z,24.27
2018-08-04T01:33:42.973Z,22.50
2018-08-04T01:36:11.162Z,23.43
2018-08-04T01:38:39.339Z,22.57
2018-08-04T01:41:07.543Z,22.37
2018-08-04T01:43:35.714Z,22.97
2018-08-04T01:46:03.893Z,22.40
2018-08-04T01:48:32.138Z,23.60
2018-08-04T01:51:00.673Z,23.07
2018-08-04T01:53:28.839Z,23.40
2018-08-04T01:55:57.032Z,23.50
2018-08-04T01:58:25.211Z,22.80
2018-08-04T02:00:53.423Z,24.40
2018-08-04T02:03:21.620Z,24.30
2018-08-04T02:05:49.875Z,24.73
2018-08-04T02:08:18.048Z,24.73
2018-08-04T02:10:46.240Z,24.17
2018-08-04T02:13:14.491Z,24.47
2018-08-04T02:15:42.681Z,22.90
2018-08-04T02:18:11.004Z,24.47
2018-08-04T02:20:39.208Z,24.67
2018-08-04T02:23:07.451Z,25.17
2018-08-04T02:25:35.671Z,26.10
2018-08-04T02:28:03.842Z,24.43
2018-08-04T02:30:32.072Z,23.97
2018-08-04T02:33:00.303Z,24.70
2018-08-04T02:35:28.500Z,25.77
2018-08-04T02:37:56.669Z,25.37
2018-08-04T02:40:24.856Z,25.13
2018-08-04T02:42:53.072Z,24.57
2018-08-04T02:45:21.312Z,25.60
2018-08-04T02:47:49.498Z,26.23
2018-08-04T02:50:17.680Z,26.90
2018-08-04T02:52:45.854Z,24.30
2018-08-04T02:55:14.056Z,25.00
2018-08-04T02:57:42.239Z,27.13
2018-08-04T03:00:10.467Z,26.70
2018-08-04T03:02:38.659Z,26.23
2018-08-04T03:05:07.383Z,25.13
2018-08-04T03:07:35.579Z,25.27
2018-08-04T03:10:03.874Z,25.20
2018-08-04T03:12:32.062Z,24.23
2018-08-04T03:15:00.251Z,26.10
2018-08-04T03:17:28.449Z,26.80
2018-08-04T03:19:56.635Z,27.20
2018-08-04T03:22:24.794Z,26.53
2018-08-04T03:24:53.055Z,27.10
2018-08-04T03:27:21.236Z,26.10
2018-08-04T03:29:49.427Z,25.43
2018-08-04T03:32:17.623Z,25.60
2018-08-04T03:34:45.809Z,27.10
2018-08-04T03:37:14.004Z,26.23
2018-08-04T03:39:42.249Z,26.43
2018-08-04T03:42:10.487Z,26.47
2018-08-04T03:44:38.666Z,26.33
2018-08-04T03:47:06.916Z,27.43
2018-08-04T03:49:35.124Z,28.23
2018-08-04T03:52:03.491Z,26.77
2018-08-04T03:54:31.696Z,27.67
2018-08-04T03:56:59.878Z,27.90
2018-08-04T03:59:28.072Z,28.93
2018-08-04T04:01:56.267Z,27.03
2018-08-04T04:04:24.470Z,28.07
2018-08-04T04:06:52.964Z,29.33
2018-08-04T04:09:21.185Z,28.07
2018-08-04T04:11:49.353Z,27.23
2018-08-04T04:14:17.527Z,28.03
2018-08-04T04:16:45.725Z,27.53
2018-08-04T04:19:13.899Z,28.20
2018-08-04T04:21:42.174Z,28.33
2018-08-04T04:24:10.348Z,27.27
2018-08-04T04:26:38.827Z,28.03
2018-08-04T04:29:06.995Z,26.97
2018-08-04T04:31:35.170Z,27.80
2018-08-04T04:34:03.347Z,27.53
2018-08-04T04:36:31.536Z,26.77
2018-08-04T04:38:59.748Z,27.40
2018-08-04T04:41:28.370Z,27.37
2018-08-04T04:43:56.828Z,27.67
2018-08-04T04:46:25.318Z,25.87
2018-08-04T04:48:53.511Z,27.00
2018-08-04T04:51:21.703Z,27.73
2018-08-04T04:53:49.898Z,29.70
2018-08-04T04:56:18.096Z,27.40
2018-08-04T04:58:46.280Z,25.80
2018-08-04T05:01:14.502Z,25.80
2018-08-04T05:03:42.690Z,27.20
2018-08-04T05:06:10.882Z,26.33
2018-08-04T05:08:39.127Z,27.03
2018-08-04T05:11:07.306Z,28.03
2018-08-04T05:13:35.486Z,27.13
2018-08-04T05:16:03.671Z,26.50
2018-08-04T05:18:31.871Z,26.57
2018-08-04T05:21:00.064Z,25.67
2018-08-04T05:23:28.251Z,27.10
2018-08-04T05:25:56.452Z,28.17
2018-08-04T05:28:24.642Z,24.03
2018-08-04T05:30:53.128Z,26.53
2018-08-04T05:33:21.470Z,25.10
2018-08-04T05:35:49.687Z,25.97
2018-08-04T05:38:18.322Z,25.40
2018-08-04T05:40:46.543Z,25.20
2018-08-04T05:43:14.842Z,23.77
2018-08-04T05:45:42.999Z,23.27
2018-08-04T05:48:11.198Z,23.53
2018-08-04T05:50:39.413Z,24.20
2018-08-04T05:53:07.604Z,22.27
2018-08-04T05:55:36.074Z,25.00
2018-08-04T05:58:04.317Z,21.57
2018-08-04T06:00:32.540Z,22.63
2018-08-04T06:03:00.928Z,23.10
2018-08-04T06:05:29.131Z,22.07
2018-08-04T06:07:57.532Z,22.90
2018-08-04T06:10:25.902Z,23.47
2018-08-04T06:12:54.183Z,22.17
2018-08-04T06:15:22.451Z,21.77
2018-08-04T06:17:51.057Z,23.97
2018-08-04T06:20:19.351Z,23.13
2018-08-04T06:22:47.534Z,22.90
2018-08-04T06:25:15.818Z,22.03
2018-08-04T06:27:44.076Z,21.70
2018-08-04T06:30:13.230Z,22.27
2018-08-04T06:32:42.277Z,21.87
2018-08-04T06:35:10.635Z,23.00
2018-08-04T06:37:38.935Z,21.60
2018-08-04T06:40:07.876Z,20.60
2018-08-04T06:42:36.080Z,20.50
2018-08-04T06:45:04.839Z,21.05
2018-08-04T06:47:33.066Z,19.97
2018-08-04T06:50:01.277Z,18.63
2018-08-04T06:52:29.648Z,19.17
2018-08-04T06:54:57.877Z,20.27
2018-08-04T06:57:26.135Z,20.88
2018-08-04T06:59:54.449Z,20.08
2018-08-04T07:02:22.710Z,19.55
2018-08-04T07:04:50.929Z,19.32
2018-08-04T07:07:19.191Z,19.25
2018-08-04T07:09:47.457Z,17.90
2018-08-04T07:12:15.955Z,19.05
2018-08-04T07:14:44.148Z,17.62
2018-08-04T07:17:12.375Z,17.92
2018-08-04T07:19:40.654Z,18.25
2018-08-04T07:22:08.896Z,17.92
2018-08-04T07:24:37.081Z,17.57
2018-08-04T07:27:05.382Z,17.45
2018-08-04T07:29:33.593Z,19.25
2018-08-04T07:32:01.848Z,16.25
2018-08-04T07:34:30.077Z,18.57
2018-08-04T07:36:58.343Z,17.52
2018-08-04T07:39:26.774Z,16.90
2018-08-04T07:41:55.036Z,18.27
2018-08-04T07:44:24.101Z,16.20
2018-08-04T07:46:52.320Z,16.60
2018-08-04T07:49:20.871Z,17.17
2018-08-04T07:51:49.855Z,15.78
2018-08-04T07:54:18.026Z,15.58
2018-08-04T07:56:46.213Z,15.60
2018-08-04T07:59:14.480Z,14.50
2018-08-04T08:01:42.796Z,13.28
2018-08-04T08:04:11.129Z,14.70
2018-08-04T08:06:39.616Z,14.98
2018-08-04T08:09:08.784Z,14.85
2018-08-04T08:11:37.165Z,15.08
2018-08-04T08:14:05.401Z,15.90
2018-08-04T08:16:33.630Z,14.45
2018-08-04T08:19:01.818Z,13.95
2018-08-04T08:21:29.995Z,14.07
2018-08-04T08:23:58.178Z,14.20
2018-08-04T08:26:26.375Z,13.95
2018-08-04T08:28:54.583Z,13.35
2018-08-04T08:31:23.670Z,14.15
2018-08-04T08:33:51.834Z,13.03
2018-08-04T08:36:20.031Z,12.20
2018-08-04T08:38:48.226Z,12.60
2018-08-04T08:41:16.468Z,12.50
2018-08-04T08:43:44.666Z,12.60
2018-08-04T08:46:12.634Z,12.63
2018-08-04T08:48:41.091Z,12.45
2018-08-04T08:51:09.287Z,12.35
2018-08-04T08:53:37.542Z,12.60
2018-08-04T08:56:06.139Z,13.08
2018-08-04T08:58:34.336Z,12.03
2018-08-04T09:01:02.517Z,12.20
2018-08-04T09:03:30.691Z,13.45
2018-08-04T09:05:59.099Z,12.43
2018-08-04T09:08:27.347Z,11.50
2018-08-04T09:10:55.545Z,12.90
2018-08-04T09:13:23.756Z,12.73
2018-08-04T09:15:52.065Z,12.65
2018-08-04T09:18:20.383Z,13.00
2018-08-04T09:20:48.590Z,12.55
2018-08-04T09:23:16.847Z,12.63
2018-08-04T09:25:45.142Z,12.33
2018-08-04T09:28:13.355Z,13.48
2018-08-04T09:30:41.610Z,12.68
2018-08-04T09:33:09.844Z,13.03
2018-08-04T09:35:38.039Z,11.88
2018-08-04T09:38:06.234Z,11.50
2018-08-04T09:40:34.426Z,12.47
2018-08-04T09:43:02.619Z,12.35
2018-08-04T09:45:30.837Z,12.82
2018-08-04T09:47:59.067Z,12.80
2018-08-04T09:50:27.266Z,12.33
2018-08-04T09:52:55.594Z,12.50
2018-08-04T09:55:23.797Z,11.70
2018-08-04T09:57:51.741Z,12.68
2018-08-04T10:00:25.384Z,11.75
2018-08-04T10:02:53.571Z,11.50
2018-08-04T10:05:21.774Z,12.07
2018-08-04T10:07:49.989Z,11.53
2018-08-04T10:12:45.457Z,10.68
2018-08-04T10:15:13.666Z,11.73
2018-08-04T10:17:41.853Z,11.18
2018-08-04T10:20:11.535Z,10.68
2018-08-04T10:22:39.723Z,9.43
2018-08-04T10:25:08.369Z,10.40
2018-08-04T10:27:36.555Z,10.45
2018-08-04T10:30:07.593Z,10.18
2018-08-04T10:32:35.994Z,9.53
2018-08-04T10:35:04.711Z,9.53
2018-08-04T10:37:32.903Z,10.30
2018-08-04T10:40:01.085Z,10.50
2018-08-04T10:42:29.294Z,10.68
2018-08-04T10:44:57.650Z,9.95
2018-08-04T10:47:25.971Z,9.40
2018-08-04T10:49:54.162Z,10.85
2018-08-04T10:52:22.342Z,10.78
2018-08-04T10:54:50.564Z,10.08
2018-08-04T10:57:18.790Z,10.53
2018-08-04T10:59:46.977Z,9.60
2018-08-04T11:02:15.204Z,10.40
2018-08-04T11:04:43.422Z,9.28
2018-08-04T11:07:11.611Z,10.38
2018-08-04T11:09:39.764Z,10.53
2018-08-04T11:12:08.256Z,9.85
2018-08-04T11:14:36.458Z,10.25
2018-08-04T11:17:04.638Z,9.85
2018-08-04T11:19:32.947Z,9.95
2018-08-04T11:22:01.125Z,9.68
2018-08-04T11:24:29.305Z,9.93
2018-08-04T11:26:57.467Z,9.68
2018-08-04T11:29:25.762Z,10.35
2018-08-04T11:31:53.970Z,8.78
2018-08-04T11:34:22.185Z,8.63
2018-08-04T11:36:51.194Z,9.00
2018-08-04T11:39:19.373Z,8.73
2018-08-04T11:41:47.619Z,9.13
2018-08-04T11:44:15.918Z,9.03
2018-08-04T11:46:44.188Z,8.45
2018-08-04T11:49:12.491Z,8.35
2018-08-04T11:51:40.999Z,8.18
2018-08-04T11:54:09.197Z,8.83
2018-08-04T11:56:37.387Z,9.23
2018-08-04T11:59:05.676Z,9.33
2018-08-04T12:01:33.948Z,8.13
2018-08-04T12:04:02.488Z,8.18
2018-08-04T12:06:30.665Z,8.58
2018-08-04T12:08:58.903Z,8.53
2018-08-04T12:11:27.371Z,8.75
2018-08-04T12:13:55.527Z,9.03
2018-08-04T12:16:23.715Z,8.08
2018-08-04T12:18:52.175Z,8.33
2018-08-04T12:21:20.676Z,8.28
2018-08-04T12:23:48.596Z,8.35
2018-08-04T12:26:16.799Z,7.58
2018-08-04T12:28:45.004Z,8.38
2018-08-04T12:31:13.266Z,8.48
2018-08-04T12:33:41.788Z,9.20
2018-08-04T12:36:09.994Z,8.28
2018-08-04T12:38:38.571Z,8.98
2018-08-04T12:41:06.811Z,8.45
2018-08-04T12:43:35.058Z,9.48
2018-08-04T12:46:03.613Z,8.73
2018-08-04T12:48:31.804Z,8.70
2018-08-04T12:51:01.458Z,8.68
2018-08-04T12:53:29.706Z,8.78
2018-08-04T12:55:58.779Z,8.93
2018-08-04T12:58:27.010Z,8.60
2018-08-04T13:00:55.345Z,9.15
2018-08-04T13:03:23.685Z,9.15
2018-08-04T13:05:52.173Z,8.73
2018-08-04T13:08:20.519Z,8.60
2018-08-04T13:10:49.782Z,9.15
2018-08-04T13:13:18.078Z,8.60
2018-08-04T13:15:46.282Z,8.78
2018-08-04T13:18:14.576Z,9.00
2018-08-04T13:20:42.751Z,8.65
2018-08-04T13:23:11.255Z,8.48
2018-08-04T13:25:39.736Z,8.63
2018-08-04T13:28:08.001Z,8.25
2018-08-04T13:30:36.207Z,8.10
2018-08-04T13:33:04.453Z,8.10
2018-08-04T13:35:32.811Z,8.08
2018-08-04T13:38:01.044Z,8.60
2018-08-04T13:40:29.283Z,8.18
2018-08-04T13:42:57.547Z,8.10
2018-08-04T13:45:25.746Z,8.33
2018-08-04T13:47:53.918Z,7.92
2018-08-04T13:50:23.076Z,7.37
2018-08-04T13:52:51.521Z,8.35
2018-08-04T13:55:19.858Z,8.40
2018-08-04T13:57:48.150Z,8.03
2018-08-04T14:00:16.440Z,8.33
2018-08-04T14:02:44.644Z,8.35
2018-08-04T14:05:12.840Z,7.92
2018-08-04T14:07:41.061Z,8.15
2018-08-04T14:10:09.252Z,7.58
2018-08-04T14:12:37.715Z,7.58
2018-08-04T14:15:05.815Z,8.30
2018-08-04T14:17:34.092Z,7.70
2018-08-04T14:20:02.356Z,7.70
2018-08-04T14:22:30.539Z,8.50
2018-08-04T14:24:58.878Z,7.62
2018-08-04T14:27:27.046Z,7.90
2018-08-04T14:29:55.252Z,7.20
2018-08-04T14:32:23.416Z,7.10
2018-08-04T14:34:51.638Z,9.08
2018-08-04T14:37:19.762Z,7.60
2018-08-04T14:39:47.975Z,7.72
2018-08-04T14:42:16.991Z,8.18
2018-08-04T14:44:45.311Z,8.43
2018-08-04T14:47:13.478Z,6.95
2018-08-04T14:49:41.664Z,7.70
2018-08-04T14:52:10.029Z,7.67
2018-08-04T14:54:38.207Z,8.15
2018-08-04T14:57:06.647Z,8.20
2018-08-04T14:59:34.832Z,6.75
2018-08-04T15:02:03.169Z,7.70
2018-08-04T15:04:31.684Z,7.33
2018-08-04T15:06:59.818Z,7.53
2018-08-04T15:09:28.082Z,7.47
2018-08-04T15:11:56.351Z,7.30
2018-08-04T15:14:24.523Z,7.30
2018-08-04T15:16:52.803Z,8.15
2018-08-04T15:19:35.741Z,7.85
2018-08-04T15:22:10.088Z,7.95
2018-08-04T15:27:23.250Z,7.87
2018-08-04T15:29:51.446Z,8.78
2018-08-04T15:32:19.614Z,7.90
2018-08-04T15:34:47.835Z,9.83
2018-08-04T15:37:16.200Z,8.10
2018-08-04T15:39:44.242Z,7.50
2018-08-04T15:42:12.431Z,7.80
2018-08-04T15:44:40.650Z,7.60
2018-08-04T15:47:08.840Z,8.03
2018-08-04T15:49:37.077Z,8.10
2018-08-04T15:52:05.262Z,8.25
2018-08-04T15:54:33.759Z,8.35
2018-08-04T15:57:01.942Z,7.90
2018-08-04T15:59:30.108Z,7.78
2018-08-04T16:01:58.560Z,8.05
2018-08-04T16:04:26.737Z,7.70
2018-08-04T16:06:55.017Z,8.33
2018-08-04T16:09:23.303Z,7.70
2018-08-04T16:11:51.549Z,8.53
2018-08-04T16:14:19.739Z,7.90
2018-08-04T16:16:47.950Z,7.83
2018-08-04T16:19:16.636Z,10.15
2018-08-04T16:21:44.915Z,7.87
2018-08-04T16:24:13.243Z,7.80
2018-08-04T16:26:41.477Z,8.23
2018-08-04T16:29:09.799Z,8.38
2018-08-04T16:31:38.152Z,8.35
2018-08-04T16:34:06.407Z,8.50
2018-08-04T16:36:34.615Z,8.40
2018-08-04T16:39:02.851Z,8.90
2018-08-04T16:41:31.040Z,8.30
2018-08-04T16:43:59.322Z,8.53
2018-08-04T16:46:27.514Z,8.50
2018-08-04T16:48:55.739Z,9.03
2018-08-04T16:51:23.920Z,8.50
2018-08-04T16:53:52.088Z,8.65
2018-08-04T16:56:20.304Z,8.25
2018-08-04T16:58:48.553Z,9.05
2018-08-04T17:01:16.770Z,9.10
2018-08-04T17:03:45.128Z,9.23
2018-08-04T17:06:13.633Z,9.33
2018-08-04T17:08:42.095Z,9.88
2018-08-04T17:11:10.327Z,9.40
2018-08-04T17:13:38.621Z,9.33
2018-08-04T17:16:06.904Z,9.63
2018-08-04T17:18:35.208Z,9.28
2018-08-04T17:21:03.922Z,9.35
2018-08-04T17:23:33.297Z,10.18
2018-08-04T17:26:01.784Z,10.23
2018-08-04T17:28:29.979Z,9.35
2018-08-04T17:30:58.258Z,10.43
2018-08-04T17:33:26.957Z,9.50
2018-08-04T17:35:59.640Z,9.38
2018-08-04T17:38:29.433Z,9.93
2018-08-04T17:40:57.803Z,9.60
2018-08-04T17:43:26.354Z,9.13
2018-08-04T17:45:55.069Z,9.73
2018-08-04T17:48:24.243Z,9.75
2018-08-04T17:50:53.339Z,9.33
2018-08-04T17:53:22.163Z,9.90
2018-08-04T17:55:50.873Z,9.88
2018-08-04T17:58:19.129Z,10.15
2018-08-04T18:00:47.419Z,10.23
2018-08-04T18:03:15.771Z,9.13
2018-08-04T18:05:44.411Z,9.78
2018-08-04T18:08:13.395Z,10.05
2018-08-04T18:10:41.886Z,9.43
2018-08-04T18:13:10.532Z,15.05
2018-08-04T18:15:39.147Z,11.68
2018-08-04T18:18:08.497Z,10.03
2018-08-04T18:20:39.440Z,9.85
2018-08-04T18:23:07.929Z,10.15
2018-08-04T18:25:36.625Z,10.32
2018-08-04T18:28:05.690Z,9.25
2018-08-04T18:30:34.148Z,9.00
2018-08-04T18:33:02.938Z,10.23
2018-08-04T18:35:31.500Z,10.28
2018-08-04T18:38:01.102Z,10.23
2018-08-04T18:40:29.715Z,10.20
2018-08-04T18:42:58.191Z,10.50
2018-08-04T18:45:27.312Z,10.20
2018-08-04T18:47:55.711Z,10.08
2018-08-04T18:50:24.261Z,10.58
2018-08-04T18:52:52.945Z,10.28
2018-08-04T18:55:22.012Z,10.10
2018-08-04T18:57:50.509Z,11.22
2018-08-04T19:00:19.199Z,10.50
2018-08-04T19:02:47.980Z,10.30
2018-08-04T19:05:16.215Z,11.05
2018-08-04T19:07:44.762Z,10.38
2018-08-04T19:10:14.604Z,10.90
2018-08-04T19:12:45.015Z,10.38
2018-08-04T19:15:14.846Z,10.32
2018-08-04T19:17:43.459Z,10.68
2018-08-04T19:20:11.727Z,9.78
2018-08-04T19:22:40.192Z,9.68
2018-08-04T19:25:09.196Z,11.33
2018-08-04T19:27:37.547Z,10.45
2018-08-04T19:30:07.273Z,10.80
2018-08-04T19:32:37.142Z,11.25
2018-08-04T19:35:05.831Z,11.35
2018-08-04T19:37:33.835Z,10.90
2018-08-04T19:40:05.177Z,11.22
2018-08-04T19:42:33.659Z,10.68
2018-08-04T19:45:02.142Z,11.18
2018-08-04T19:47:30.452Z,11.50
2018-08-04T19:49:58.878Z,11.30
2018-08-04T19:52:27.135Z,11.60
2018-08-04T19:54:55.388Z,11.73
2018-08-04T19:57:23.931Z,11.30
2018-08-04T19:59:52.213Z,11.03
2018-08-04T20:02:20.438Z,11.43
2018-08-04T20:04:48.902Z,11.40
2018-08-04T20:07:17.387Z,11.53
2018-08-04T20:09:46.146Z,12.13
2018-08-04T20:12:14.875Z,11.97
2018-08-04T20:14:43.286Z,11.75
2018-08-04T20:17:11.812Z,12.10
2018-08-04T20:19:39.902Z,12.15
2018-08-04T20:22:11.030Z,11.63
2018-08-04T20:24:39.469Z,10.55
2018-08-04T20:27:07.906Z,11.22
2018-08-04T20:29:36.338Z,11.83
2018-08-04T20:32:04.759Z,11.03
2018-08-04T20:34:33.397Z,12.30
2018-08-04T20:37:02.195Z,12.05
2018-08-04T20:39:30.698Z,11.47
2018-08-04T20:41:59.329Z,13.13
2018-08-04T20:44:27.866Z,11.93
2018-08-04T20:46:56.375Z,12.67
2018-08-04T20:49:24.816Z,12.97
2018-08-04T20:51:53.663Z,12.40
2018-08-04T20:54:22.191Z,13.27
2018-08-04T20:56:50.804Z,13.93
2018-08-04T20:59:19.254Z,13.57
2018-08-04T21:01:50.041Z,14.57
2018-08-04T21:04:18.846Z,13.50
2018-08-04T21:06:47.782Z,13.67
2018-08-04T21:09:16.244Z,13.63
2018-08-04T21:11:49.805Z,14.20
2018-08-04T21:14:19.327Z,13.80
2018-08-04T21:16:48.153Z,14.27
2018-08-04T21:19:16.721Z,14.10
2018-08-04T21:21:45.263Z,13.93
2018-08-04T21:24:13.639Z,14.17
2018-08-04T21:26:42.517Z,14.37
2018-08-04T21:29:11.020Z,15.23
2018-08-04T21:31:39.195Z,14.40
2018-08-04T21:34:07.597Z,14.83
2018-08-04T21:36:35.995Z,14.40
2018-08-04T21:39:06.573Z,14.03
2018-08-04T21:41:34.705Z,14.00
2018-08-04T21:44:03.247Z,14.37
2018-08-04T21:46:31.611Z,15.17
2018-08-04T21:49:00.021Z,15.33
2018-08-04T21:51:28.478Z,14.80
2018-08-04T21:53:57.336Z,14.97
2018-08-04T21:56:25.759Z,15.20
2018-08-04T21:58:54.148Z,14.40
2018-08-04T22:01:22.684Z,13.70
2018-08-04T22:03:51.035Z,14.67
2018-08-04T22:06:19.682Z,13.57
2018-08-04T22:08:59.223Z,14.80
2018-08-04T22:11:27.646Z,15.17
2018-08-04T22:13:56.080Z,17.80
2018-08-04T22:16:24.527Z,16.43
2018-08-04T22:18:52.915Z,16.20
2018-08-04T22:21:21.437Z,15.33
2018-08-04T22:23:49.858Z,15.43
2018-08-04T22:26:18.288Z,15.80
2018-08-04T22:28:46.722Z,15.27
2018-08-04T22:31:15.167Z,16.47
2018-08-04T22:33:43.549Z,16.30
2018-08-04T22:36:12.031Z,16.83
2018-08-04T22:38:40.448Z,16.83
2018-08-04T22:41:08.924Z,16.27
2018-08-04T22:43:37.367Z,16.33
2018-08-04T22:46:12.912Z,16.93
2018-08-04T22:48:42.345Z,16.10
2018-08-04T22:51:10.794Z,17.33
2018-08-04T22:53:39.228Z,16.80
2018-08-04T22:56:07.629Z,16.97
2018-08-04T22:58:35.993Z,17.37
2018-08-04T23:01:04.418Z,18.17
2018-08-04T23:03:32.836Z,16.53
2018-08-04T23:06:01.228Z,17.53
2018-08-04T23:08:29.604Z,16.83
2018-08-04T23:10:57.996Z,17.27
2018-08-04T23:13:26.429Z,18.43
2018-08-04T23:15:54.923Z,17.13
2018-08-04T23:18:23.611Z,17.20
2018-08-04T23:20:52.009Z,16.53
2018-08-04T23:23:20.159Z,17.70
2018-08-04T23:25:48.715Z,17.77
2018-08-04T23:28:17.102Z,18.90
2018-08-04T23:30:45.582Z,18.13
2018-08-04T23:33:14.011Z,17.00
2018-08-04T23:38:41.728Z,18.83
2018-08-04T23:41:10.155Z,18.60
2018-08-04T23:43:38.585Z,17.33
2018-08-04T23:46:06.993Z,17.97
2018-08-04T23:48:35.406Z,18.70
2018-08-04T23:51:03.806Z,17.37
2018-08-04T23:53:32.202Z,17.70
2018-08-04T23:56:00.634Z,18.33
2018-08-04T23:58:29.037Z,18.70
